sensor_id;sensor_type;location;lat;lon;timestamp;temperature;humidity
18581;DHT22;9420;50.876;7.012;2022-11-06T00:01:38;7.30;99.90
18581;DHT22;9420;50.876;7.012;2022-11-06T00:04:05;7.30;99.90
18581;DHT22;9420;50.876;7.012;2022-11-06T00:06:32;7.30;99.90
18581;DHT22;9420;50.876;7.012;2022-11-06T00:09:15;7.30;99.90
18581;DHT22;9420;50.876;7.012;2022-11-06T00:11:45;7.30;99.90
18581;DHT22;9420;50.876;7.012;2022-11-06T00:14:13;7.30;99.90
18581;DHT22;9420;50.876;7.012;2022-11-06T00:16:41;7.30;99.90
18581;DHT22;9420;50.876;7.012;2022-11-06T00:19:10;7.30;99.90
18581;DHT22;9420;50.876;7.012;2022-11-06T00:21:37;7.20;99.90
18581;DHT22;9420;50.876;7.012;2022-11-06T00:24:06;7.20;99.90
18581;DHT22;9420;50.876;7.012;2022-11-06T00:26:34;7.20;99.90
18581;DHT22;9420;50.876;7.012;2022-11-06T00:29:04;7.20;99.90
18581;DHT22;9420;50.876;7.012;2022-11-06T00:31:34;7.10;99.90
18581;DHT22;9420;50.876;7.012;2022-11-06T00:34:04;7.10;99.90
18581;DHT22;9420;50.876;7.012;2022-11-06T00:36:32;7.00;99.90
18581;DHT22;9420;50.876;7.012;2022-11-06T00:38:59;7.00;99.90
18581;DHT22;9420;50.876;7.012;2022-11-06T00:41:27;7.00;99.90
18581;DHT22;9420;50.876;7.012;2022-11-06T00:43:56;7.00;99.90
18581;DHT22;9420;50.876;7.012;2022-11-06T00:46:26;7.00;99.90
18581;DHT22;9420;50.876;7.012;2022-11-06T00:48:54;7.00;99.90
18581;DHT22;9420;50.876;7.012;2022-11-06T00:51:24;7.00;99.90
18581;DHT22;9420;50.876;7.012;2022-11-06T00:53:53;6.90;99.90
18581;DHT22;9420;50.876;7.012;2022-11-06T00:56:21;6.90;99.90
18581;DHT22;9420;50.876;7.012;2022-11-06T00:58:49;6.90;99.90
18581;DHT22;9420;50.876;7.012;2022-11-06T01:01:19;6.90;99.90
18581;DHT22;9420;50.876;7.012;2022-11-06T01:03:52;6.80;99.90
18581;DHT22;9420;50.876;7.012;2022-11-06T01:06:23;6.80;99.90
18581;DHT22;9420;50.876;7.012;2022-11-06T01:08:53;6.80;99.90
18581;DHT22;9420;50.876;7.012;2022-11-06T01:11:22;6.70;99.90
18581;DHT22;9420;50.876;7.012;2022-11-06T01:13:53;6.80;99.90
18581;DHT22;9420;50.876;7.012;2022-11-06T01:16:22;6.80;99.90
18581;DHT22;9420;50.876;7.012;2022-11-06T01:18:53;6.70;99.90
18581;DHT22;9420;50.876;7.012;2022-11-06T01:21:23;6.70;99.90
18581;DHT22;9420;50.876;7.012;2022-11-06T01:23:53;6.70;99.90
18581;DHT22;9420;50.876;7.012;2022-11-06T01:26:22;6.70;99.90
18581;DHT22;9420;50.876;7.012;2022-11-06T01:28:51;6.70;99.90
18581;DHT22;9420;50.876;7.012;2022-11-06T01:31:23;6.70;99.90
18581;DHT22;9420;50.876;7.012;2022-11-06T01:33:53;6.60;99.90
18581;DHT22;9420;50.876;7.012;2022-11-06T01:36:22;6.60;99.90
18581;DHT22;9420;50.876;7.012;2022-11-06T01:38:51;6.60;99.90
18581;DHT22;9420;50.876;7.012;2022-11-06T01:41:21;6.50;99.90
18581;DHT22;9420;50.876;7.012;2022-11-06T01:43:51;6.60;99.90
18581;DHT22;9420;50.876;7.012;2022-11-06T01:46:21;6.60;99.90
18581;DHT22;9420;50.876;7.012;2022-11-06T01:48:55;6.60;99.90
18581;DHT22;9420;50.876;7.012;2022-11-06T01:51:27;6.60;99.90
18581;DHT22;9420;50.876;7.012;2022-11-06T01:53:57;6.60;99.90
18581;DHT22;9420;50.876;7.012;2022-11-06T01:56:24;6.70;99.90
18581;DHT22;9420;50.876;7.012;2022-11-06T01:58:53;6.70;99.90
18581;DHT22;9420;50.876;7.012;2022-11-06T02:01:22;6.80;99.90
18581;DHT22;9420;50.876;7.012;2022-11-06T02:03:54;6.80;99.90
18581;DHT22;9420;50.876;7.012;2022-11-06T02:06:25;6.90;99.90
18581;DHT22;9420;50.876;7.012;2022-11-06T02:08:53;6.90;99.90
18581;DHT22;9420;50.876;7.012;2022-11-06T02:11:20;6.90;99.90
18581;DHT22;9420;50.876;7.012;2022-11-06T02:13:54;7.00;99.90
18581;DHT22;9420;50.876;7.012;2022-11-06T02:16:34;7.00;99.90
18581;DHT22;9420;50.876;7.012;2022-11-06T02:19:34;6.90;99.90
18581;DHT22;9420;50.876;7.012;2022-11-06T02:22:24;7.00;99.90
18581;DHT22;9420;50.876;7.012;2022-11-06T02:25:11;7.00;99.90
18581;DHT22;9420;50.876;7.012;2022-11-06T02:27:45;7.00;99.90
18581;DHT22;9420;50.876;7.012;2022-11-06T02:30:17;6.90;99.90
18581;DHT22;9420;50.876;7.012;2022-11-06T02:32:49;7.00;99.90
18581;DHT22;9420;50.876;7.012;2022-11-06T02:35:25;7.00;99.90
18581;DHT22;9420;50.876;7.012;2022-11-06T02:37:57;7.00;99.90
18581;DHT22;9420;50.876;7.012;2022-11-06T02:40:31;7.00;99.90
18581;DHT22;9420;50.876;7.012;2022-11-06T02:43:06;7.00;99.90
18581;DHT22;9420;50.876;7.012;2022-11-06T02:45:39;7.00;99.90
18581;DHT22;9420;50.876;7.012;2022-11-06T02:48:13;7.00;99.90
18581;DHT22;9420;50.876;7.012;2022-11-06T02:50:47;6.90;99.90
18581;DHT22;9420;50.876;7.012;2022-11-06T02:53:20;6.90;99.90
18581;DHT22;9420;50.876;7.012;2022-11-06T02:55:53;6.90;99.90
18581;DHT22;9420;50.876;7.012;2022-11-06T02:58:30;6.90;99.90
18581;DHT22;9420;50.876;7.012;2022-11-06T03:01:05;6.90;99.90
18581;DHT22;9420;50.876;7.012;2022-11-06T03:03:40;6.90;99.90
18581;DHT22;9420;50.876;7.012;2022-11-06T03:06:16;6.80;99.90
18581;DHT22;9420;50.876;7.012;2022-11-06T03:08:51;6.90;99.90
18581;DHT22;9420;50.876;7.012;2022-11-06T03:11:26;6.90;99.90
18581;DHT22;9420;50.876;7.012;2022-11-06T03:14:00;6.80;99.90
18581;DHT22;9420;50.876;7.012;2022-11-06T03:16:51;6.80;99.90
18581;DHT22;9420;50.876;7.012;2022-11-06T03:19:26;6.80;99.90
18581;DHT22;9420;50.876;7.012;2022-11-06T03:22:01;6.80;99.90
18581;DHT22;9420;50.876;7.012;2022-11-06T03:24:41;6.80;99.90
18581;DHT22;9420;50.876;7.012;2022-11-06T03:27:13;6.80;99.90
18581;DHT22;9420;50.876;7.012;2022-11-06T03:29:49;6.80;99.90
18581;DHT22;9420;50.876;7.012;2022-11-06T03:32:25;6.80;99.90
18581;DHT22;9420;50.876;7.012;2022-11-06T03:35:00;6.90;99.90
18581;DHT22;9420;50.876;7.012;2022-11-06T03:37:37;6.90;99.90
18581;DHT22;9420;50.876;7.012;2022-11-06T03:40:12;7.00;99.90
18581;DHT22;9420;50.876;7.012;2022-11-06T03:42:44;7.00;99.90
18581;DHT22;9420;50.876;7.012;2022-11-06T03:45:17;7.00;99.90
18581;DHT22;9420;50.876;7.012;2022-11-06T03:47:49;6.90;99.90
18581;DHT22;9420;50.876;7.012;2022-11-06T03:50:25;6.90;99.90
18581;DHT22;9420;50.876;7.012;2022-11-06T03:52:59;6.90;99.90
18581;DHT22;9420;50.876;7.012;2022-11-06T03:55:36;6.80;99.90
18581;DHT22;9420;50.876;7.012;2022-11-06T03:58:09;6.80;99.90
18581;DHT22;9420;50.876;7.012;2022-11-06T04:00:42;6.90;99.90
18581;DHT22;9420;50.876;7.012;2022-11-06T04:03:14;6.90;99.90
18581;DHT22;9420;50.876;7.012;2022-11-06T04:05:52;6.80;99.90
18581;DHT22;9420;50.876;7.012;2022-11-06T04:08:24;6.80;99.90
18581;DHT22;9420;50.876;7.012;2022-11-06T04:11:14;6.80;99.90
18581;DHT22;9420;50.876;7.012;2022-11-06T04:14:03;6.80;99.90
18581;DHT22;9420;50.876;7.012;2022-11-06T04:16:35;6.80;99.90
18581;DHT22;9420;50.876;7.012;2022-11-06T04:19:08;6.80;99.90
18581;DHT22;9420;50.876;7.012;2022-11-06T04:21:52;6.80;99.90
18581;DHT22;9420;50.876;7.012;2022-11-06T04:24:35;6.80;99.90
18581;DHT22;9420;50.876;7.012;2022-11-06T04:27:47;6.80;99.90
18581;DHT22;9420;50.876;7.012;2022-11-06T04:30:24;6.80;99.90
18581;DHT22;9420;50.876;7.012;2022-11-06T04:33:06;6.80;99.90
18581;DHT22;9420;50.876;7.012;2022-11-06T04:35:47;6.80;99.90
18581;DHT22;9420;50.876;7.012;2022-11-06T04:38:25;6.80;99.90
18581;DHT22;9420;50.876;7.012;2022-11-06T04:41:06;6.80;99.90
18581;DHT22;9420;50.876;7.012;2022-11-06T04:43:45;6.80;99.90
18581;DHT22;9420;50.876;7.012;2022-11-06T04:46:18;6.80;99.90
18581;DHT22;9420;50.876;7.012;2022-11-06T04:48:50;6.80;99.90
18581;DHT22;9420;50.876;7.012;2022-11-06T04:51:20;6.80;99.90
18581;DHT22;9420;50.876;7.012;2022-11-06T04:53:50;6.90;99.90
18581;DHT22;9420;50.876;7.012;2022-11-06T04:56:22;6.90;99.90
18581;DHT22;9420;50.876;7.012;2022-11-06T04:58:52;6.90;99.90
18581;DHT22;9420;50.876;7.012;2022-11-06T05:01:19;6.90;99.90
18581;DHT22;9420;50.876;7.012;2022-11-06T05:03:46;6.90;99.90
18581;DHT22;9420;50.876;7.012;2022-11-06T05:06:14;6.80;99.90
18581;DHT22;9420;50.876;7.012;2022-11-06T05:08:42;6.80;99.90
18581;DHT22;9420;50.876;7.012;2022-11-06T05:11:09;6.80;99.90
18581;DHT22;9420;50.876;7.012;2022-11-06T05:13:36;6.80;99.90
18581;DHT22;9420;50.876;7.012;2022-11-06T05:16:04;6.80;99.90
18581;DHT22;9420;50.876;7.012;2022-11-06T05:18:31;6.80;99.90
18581;DHT22;9420;50.876;7.012;2022-11-06T05:20:58;6.80;99.90
18581;DHT22;9420;50.876;7.012;2022-11-06T05:23:45;6.80;99.90
18581;DHT22;9420;50.876;7.012;2022-11-06T05:26:12;6.80;99.90
18581;DHT22;9420;50.876;7.012;2022-11-06T05:28:39;6.80;99.90
18581;DHT22;9420;50.876;7.012;2022-11-06T05:31:07;6.80;99.90
18581;DHT22;9420;50.876;7.012;2022-11-06T05:33:34;6.80;99.90
18581;DHT22;9420;50.876;7.012;2022-11-06T05:36:01;6.80;99.90
18581;DHT22;9420;50.876;7.012;2022-11-06T05:38:28;6.70;99.90
18581;DHT22;9420;50.876;7.012;2022-11-06T05:40:57;6.70;99.90
18581;DHT22;9420;50.876;7.012;2022-11-06T05:43:24;6.70;99.90
18581;DHT22;9420;50.876;7.012;2022-11-06T05:45:52;6.70;99.90
18581;DHT22;9420;50.876;7.012;2022-11-06T05:48:19;6.70;99.90
18581;DHT22;9420;50.876;7.012;2022-11-06T05:50:46;6.70;99.90
18581;DHT22;9420;50.876;7.012;2022-11-06T05:53:13;6.80;99.90
18581;DHT22;9420;50.876;7.012;2022-11-06T05:55:41;6.80;99.90
18581;DHT22;9420;50.876;7.012;2022-11-06T05:58:12;6.70;99.90
18581;DHT22;9420;50.876;7.012;2022-11-06T06:00:39;6.70;99.90
18581;DHT22;9420;50.876;7.012;2022-11-06T06:03:06;6.70;99.90
18581;DHT22;9420;50.876;7.012;2022-11-06T06:05:33;6.70;99.90
18581;DHT22;9420;50.876;7.012;2022-11-06T06:08:00;6.80;99.90
18581;DHT22;9420;50.876;7.012;2022-11-06T06:10:27;6.80;99.90
18581;DHT22;9420;50.876;7.012;2022-11-06T06:12:54;6.80;99.90
18581;DHT22;9420;50.876;7.012;2022-11-06T06:15:25;6.80;99.90
18581;DHT22;9420;50.876;7.012;2022-11-06T06:17:52;6.80;99.90
18581;DHT22;9420;50.876;7.012;2022-11-06T06:20:19;6.80;99.90
18581;DHT22;9420;50.876;7.012;2022-11-06T06:22:52;6.80;99.90
18581;DHT22;9420;50.876;7.012;2022-11-06T06:25:19;6.80;99.90
18581;DHT22;9420;50.876;7.012;2022-11-06T06:27:46;6.70;99.90
18581;DHT22;9420;50.876;7.012;2022-11-06T06:30:14;6.70;99.90
18581;DHT22;9420;50.876;7.012;2022-11-06T06:32:43;6.70;99.90
18581;DHT22;9420;50.876;7.012;2022-11-06T06:35:11;6.70;99.90
18581;DHT22;9420;50.876;7.012;2022-11-06T06:37:38;6.70;99.90
18581;DHT22;9420;50.876;7.012;2022-11-06T06:40:06;6.80;99.90
18581;DHT22;9420;50.876;7.012;2022-11-06T06:42:34;6.80;99.90
18581;DHT22;9420;50.876;7.012;2022-11-06T06:45:01;6.80;99.90
18581;DHT22;9420;50.876;7.012;2022-11-06T06:47:28;6.80;99.90
18581;DHT22;9420;50.876;7.012;2022-11-06T06:49:56;6.80;99.90
18581;DHT22;9420;50.876;7.012;2022-11-06T06:52:23;6.80;99.90
18581;DHT22;9420;50.876;7.012;2022-11-06T06:54:50;6.80;99.90
18581;DHT22;9420;50.876;7.012;2022-11-06T06:57:17;6.80;99.90
18581;DHT22;9420;50.876;7.012;2022-11-06T06:59:44;6.80;99.90
18581;DHT22;9420;50.876;7.012;2022-11-06T07:02:11;6.70;99.90
18581;DHT22;9420;50.876;7.012;2022-11-06T07:04:38;6.70;99.90
18581;DHT22;9420;50.876;7.012;2022-11-06T07:07:07;6.80;99.90
18581;DHT22;9420;50.876;7.012;2022-11-06T07:09:34;6.90;99.90
18581;DHT22;9420;50.876;7.012;2022-11-06T07:12:01;6.90;99.90
18581;DHT22;9420;50.876;7.012;2022-11-06T07:14:30;7.00;99.90
18581;DHT22;9420;50.876;7.012;2022-11-06T07:16:56;7.00;99.90
18581;DHT22;9420;50.876;7.012;2022-11-06T07:19:23;7.10;99.90
18581;DHT22;9420;50.876;7.012;2022-11-06T07:21:51;7.20;99.90
18581;DHT22;9420;50.876;7.012;2022-11-06T07:24:19;7.20;99.90
18581;DHT22;9420;50.876;7.012;2022-11-06T07:26:46;7.20;99.90
18581;DHT22;9420;50.876;7.012;2022-11-06T07:29:14;7.30;99.90
18581;DHT22;9420;50.876;7.012;2022-11-06T07:31:41;7.30;99.90
18581;DHT22;9420;50.876;7.012;2022-11-06T07:34:08;7.40;99.90
18581;DHT22;9420;50.876;7.012;2022-11-06T07:36:35;7.50;99.90
18581;DHT22;9420;50.876;7.012;2022-11-06T07:39:03;7.60;99.90
18581;DHT22;9420;50.876;7.012;2022-11-06T07:41:31;7.60;99.90
18581;DHT22;9420;50.876;7.012;2022-11-06T07:43:58;7.70;99.90
18581;DHT22;9420;50.876;7.012;2022-11-06T07:46:25;7.80;99.90
18581;DHT22;9420;50.876;7.012;2022-11-06T07:48:52;7.80;99.90
18581;DHT22;9420;50.876;7.012;2022-11-06T07:51:20;7.80;99.90
18581;DHT22;9420;50.876;7.012;2022-11-06T07:53:47;8.00;99.90
18581;DHT22;9420;50.876;7.012;2022-11-06T07:56:15;8.10;99.90
18581;DHT22;9420;50.876;7.012;2022-11-06T07:58:43;8.20;99.90
18581;DHT22;9420;50.876;7.012;2022-11-06T08:01:14;8.30;99.90
18581;DHT22;9420;50.876;7.012;2022-11-06T08:03:42;8.40;99.90
18581;DHT22;9420;50.876;7.012;2022-11-06T08:06:09;8.40;99.90
18581;DHT22;9420;50.876;7.012;2022-11-06T08:08:36;8.50;99.90
18581;DHT22;9420;50.876;7.012;2022-11-06T08:11:05;8.60;99.90
18581;DHT22;9420;50.876;7.012;2022-11-06T08:13:33;8.60;99.90
18581;DHT22;9420;50.876;7.012;2022-11-06T08:16:04;8.50;99.90
18581;DHT22;9420;50.876;7.012;2022-11-06T08:18:32;8.50;99.90
18581;DHT22;9420;50.876;7.012;2022-11-06T08:21:00;8.50;99.90
18581;DHT22;9420;50.876;7.012;2022-11-06T08:23:27;8.60;99.90
18581;DHT22;9420;50.876;7.012;2022-11-06T08:25:55;8.60;99.90
18581;DHT22;9420;50.876;7.012;2022-11-06T08:28:23;8.70;99.90
18581;DHT22;9420;50.876;7.012;2022-11-06T08:30:51;8.70;99.90
18581;DHT22;9420;50.876;7.012;2022-11-06T08:33:20;8.80;99.90
18581;DHT22;9420;50.876;7.012;2022-11-06T08:35:48;8.90;99.90
18581;DHT22;9420;50.876;7.012;2022-11-06T08:38:15;9.00;99.90
18581;DHT22;9420;50.876;7.012;2022-11-06T08:40:42;9.10;99.90
18581;DHT22;9420;50.876;7.012;2022-11-06T08:43:09;9.10;99.90
18581;DHT22;9420;50.876;7.012;2022-11-06T08:45:37;9.20;99.90
18581;DHT22;9420;50.876;7.012;2022-11-06T08:48:06;9.30;99.90
18581;DHT22;9420;50.876;7.012;2022-11-06T08:50:37;9.30;99.90
18581;DHT22;9420;50.876;7.012;2022-11-06T08:53:06;9.40;99.90
18581;DHT22;9420;50.876;7.012;2022-11-06T08:55:35;9.40;99.90
18581;DHT22;9420;50.876;7.012;2022-11-06T08:58:04;9.40;99.90
18581;DHT22;9420;50.876;7.012;2022-11-06T09:00:32;9.50;99.90
18581;DHT22;9420;50.876;7.012;2022-11-06T09:03:00;9.50;99.90
18581;DHT22;9420;50.876;7.012;2022-11-06T09:05:29;9.50;99.90
18581;DHT22;9420;50.876;7.012;2022-11-06T09:07:58;9.60;99.90
18581;DHT22;9420;50.876;7.012;2022-11-06T09:10:27;9.70;99.90
18581;DHT22;9420;50.876;7.012;2022-11-06T09:12:57;9.70;99.90
18581;DHT22;9420;50.876;7.012;2022-11-06T09:15:25;9.70;99.90
18581;DHT22;9420;50.876;7.012;2022-11-06T09:17:53;9.80;99.90
18581;DHT22;9420;50.876;7.012;2022-11-06T09:20:24;9.80;99.90
18581;DHT22;9420;50.876;7.012;2022-11-06T09:22:51;9.80;99.90
18581;DHT22;9420;50.876;7.012;2022-11-06T09:25:20;9.90;99.90
18581;DHT22;9420;50.876;7.012;2022-11-06T09:27:49;9.90;99.90
18581;DHT22;9420;50.876;7.012;2022-11-06T09:30:19;10.00;99.90
18581;DHT22;9420;50.876;7.012;2022-11-06T09:32:50;10.00;99.90
18581;DHT22;9420;50.876;7.012;2022-11-06T09:35:20;10.00;99.90
18581;DHT22;9420;50.876;7.012;2022-11-06T09:37:49;10.00;99.90
18581;DHT22;9420;50.876;7.012;2022-11-06T09:40:23;10.00;99.90
18581;DHT22;9420;50.876;7.012;2022-11-06T09:43:21;10.00;99.90
18581;DHT22;9420;50.876;7.012;2022-11-06T09:46:05;10.10;99.90
18581;DHT22;9420;50.876;7.012;2022-11-06T09:48:41;10.20;99.90
18581;DHT22;9420;50.876;7.012;2022-11-06T09:51:18;10.20;99.90
18581;DHT22;9420;50.876;7.012;2022-11-06T09:54:00;10.30;99.90
18581;DHT22;9420;50.876;7.012;2022-11-06T09:56:34;10.50;99.90
18581;DHT22;9420;50.876;7.012;2022-11-06T09:59:10;10.60;99.90
18581;DHT22;9420;50.876;7.012;2022-11-06T10:01:43;10.70;99.90
18581;DHT22;9420;50.876;7.012;2022-11-06T10:04:37;10.90;99.90
18581;DHT22;9420;50.876;7.012;2022-11-06T10:07:21;11.00;99.90
18581;DHT22;9420;50.876;7.012;2022-11-06T10:09:53;11.00;99.90
18581;DHT22;9420;50.876;7.012;2022-11-06T10:12:27;11.10;99.90
18581;DHT22;9420;50.876;7.012;2022-11-06T10:15:16;11.20;99.90
18581;DHT22;9420;50.876;7.012;2022-11-06T10:17:55;11.30;99.90
18581;DHT22;9420;50.876;7.012;2022-11-06T10:20:31;11.50;99.90
18581;DHT22;9420;50.876;7.012;2022-11-06T10:23:15;11.60;99.90
18581;DHT22;9420;50.876;7.012;2022-11-06T10:25:55;11.60;99.90
18581;DHT22;9420;50.876;7.012;2022-11-06T10:28:51;11.60;99.90
18581;DHT22;9420;50.876;7.012;2022-11-06T10:31:33;11.70;99.90
18581;DHT22;9420;50.876;7.012;2022-11-06T10:34:11;11.70;99.90
18581;DHT22;9420;50.876;7.012;2022-11-06T10:36:45;11.70;99.90
18581;DHT22;9420;50.876;7.012;2022-11-06T10:39:21;11.80;99.90
18581;DHT22;9420;50.876;7.012;2022-11-06T10:41:53;11.80;99.90
18581;DHT22;9420;50.876;7.012;2022-11-06T10:44:29;11.80;99.90
18581;DHT22;9420;50.876;7.012;2022-11-06T10:47:05;11.70;99.90
18581;DHT22;9420;50.876;7.012;2022-11-06T10:49:45;11.60;99.90
18581;DHT22;9420;50.876;7.012;2022-11-06T10:52:31;11.50;99.90
18581;DHT22;9420;50.876;7.012;2022-11-06T10:55:32;11.50;99.90
18581;DHT22;9420;50.876;7.012;2022-11-06T10:58:11;11.50;99.90
18581;DHT22;9420;50.876;7.012;2022-11-06T11:00:41;11.40;99.90
18581;DHT22;9420;50.876;7.012;2022-11-06T11:03:18;11.40;99.90
18581;DHT22;9420;50.876;7.012;2022-11-06T11:05:50;11.40;99.90
18581;DHT22;9420;50.876;7.012;2022-11-06T11:08:38;11.50;99.90
18581;DHT22;9420;50.876;7.012;2022-11-06T11:11:22;11.60;99.90
18581;DHT22;9420;50.876;7.012;2022-11-06T11:14:13;11.60;99.90
18581;DHT22;9420;50.876;7.012;2022-11-06T11:16:48;11.70;99.90
18581;DHT22;9420;50.876;7.012;2022-11-06T11:19:25;11.60;99.90
18581;DHT22;9420;50.876;7.012;2022-11-06T11:22:01;11.50;99.90
18581;DHT22;9420;50.876;7.012;2022-11-06T11:24:29;11.40;99.90
18581;DHT22;9420;50.876;7.012;2022-11-06T11:26:59;11.50;99.90
18581;DHT22;9420;50.876;7.012;2022-11-06T11:29:32;11.40;99.90
18581;DHT22;9420;50.876;7.012;2022-11-06T11:32:07;11.50;99.90
18581;DHT22;9420;50.876;7.012;2022-11-06T11:34:36;11.50;99.90
18581;DHT22;9420;50.876;7.012;2022-11-06T11:37:21;11.60;99.90
18581;DHT22;9420;50.876;7.012;2022-11-06T11:39:51;11.80;99.90
18581;DHT22;9420;50.876;7.012;2022-11-06T11:42:24;12.00;99.90
18581;DHT22;9420;50.876;7.012;2022-11-06T11:45:11;12.10;99.90
18581;DHT22;9420;50.876;7.012;2022-11-06T11:47:42;12.30;99.90
18581;DHT22;9420;50.876;7.012;2022-11-06T11:50:25;12.30;99.90
18581;DHT22;9420;50.876;7.012;2022-11-06T11:52:58;12.50;99.90
18581;DHT22;9420;50.876;7.012;2022-11-06T11:55:36;12.60;99.90
18581;DHT22;9420;50.876;7.012;2022-11-06T11:58:17;12.70;99.90
18581;DHT22;9420;50.876;7.012;2022-11-06T12:00:54;13.10;99.90
18581;DHT22;9420;50.876;7.012;2022-11-06T12:03:27;14.00;99.90
18581;DHT22;9420;50.876;7.012;2022-11-06T12:06:05;15.60;99.90
18581;DHT22;9420;50.876;7.012;2022-11-06T12:08:37;17.60;99.90
18581;DHT22;9420;50.876;7.012;2022-11-06T12:11:09;18.70;99.90
18581;DHT22;9420;50.876;7.012;2022-11-06T12:13:40;19.20;99.90
18581;DHT22;9420;50.876;7.012;2022-11-06T12:16:12;19.90;99.90
18581;DHT22;9420;50.876;7.012;2022-11-06T12:18:47;20.50;99.90
18581;DHT22;9420;50.876;7.012;2022-11-06T12:21:20;20.70;99.90
18581;DHT22;9420;50.876;7.012;2022-11-06T12:23:54;19.30;99.90
18581;DHT22;9420;50.876;7.012;2022-11-06T12:26:30;17.70;99.90
18581;DHT22;9420;50.876;7.012;2022-11-06T12:29:06;16.60;99.90
18581;DHT22;9420;50.876;7.012;2022-11-06T12:31:43;15.60;99.90
18581;DHT22;9420;50.876;7.012;2022-11-06T12:34:22;16.10;99.90
18581;DHT22;9420;50.876;7.012;2022-11-06T12:37:08;16.10;99.90
18581;DHT22;9420;50.876;7.012;2022-11-06T12:39:42;16.50;99.90
18581;DHT22;9420;50.876;7.012;2022-11-06T12:42:16;17.60;99.90
18581;DHT22;9420;50.876;7.012;2022-11-06T12:44:47;17.10;99.90
18581;DHT22;9420;50.876;7.012;2022-11-06T12:47:21;16.50;99.90
18581;DHT22;9420;50.876;7.012;2022-11-06T12:50:19;16.10;99.90
18581;DHT22;9420;50.876;7.012;2022-11-06T12:53:13;15.70;99.90
18581;DHT22;9420;50.876;7.012;2022-11-06T12:55:51;15.30;99.90
18581;DHT22;9420;50.876;7.012;2022-11-06T12:58:43;15.00;99.90
18581;DHT22;9420;50.876;7.012;2022-11-06T13:01:32;14.60;99.90
18581;DHT22;9420;50.876;7.012;2022-11-06T13:04:34;14.70;99.90
18581;DHT22;9420;50.876;7.012;2022-11-06T13:07:25;14.60;99.90
18581;DHT22;9420;50.876;7.012;2022-11-06T13:10:08;14.80;99.90
18581;DHT22;9420;50.876;7.012;2022-11-06T13:12:52;14.80;99.90
18581;DHT22;9420;50.876;7.012;2022-11-06T13:15:33;14.70;99.90
18581;DHT22;9420;50.876;7.012;2022-11-06T13:18:11;14.60;99.90
18581;DHT22;9420;50.876;7.012;2022-11-06T13:20:48;14.50;99.90
18581;DHT22;9420;50.876;7.012;2022-11-06T13:23:25;14.30;99.90
18581;DHT22;9420;50.876;7.012;2022-11-06T13:26:02;14.20;99.90
18581;DHT22;9420;50.876;7.012;2022-11-06T13:28:39;14.10;99.90
18581;DHT22;9420;50.876;7.012;2022-11-06T13:31:12;13.90;99.90
18581;DHT22;9420;50.876;7.012;2022-11-06T13:33:46;13.90;99.90
18581;DHT22;9420;50.876;7.012;2022-11-06T13:36:19;13.90;99.90
18581;DHT22;9420;50.876;7.012;2022-11-06T13:38:50;13.70;99.90
18581;DHT22;9420;50.876;7.012;2022-11-06T13:41:25;13.70;99.90
18581;DHT22;9420;50.876;7.012;2022-11-06T13:43:58;13.60;99.90
18581;DHT22;9420;50.876;7.012;2022-11-06T13:46:35;13.40;99.90
18581;DHT22;9420;50.876;7.012;2022-11-06T13:49:15;13.30;99.90
18581;DHT22;9420;50.876;7.012;2022-11-06T13:51:52;13.10;99.90
18581;DHT22;9420;50.876;7.012;2022-11-06T13:54:38;13.00;99.90
18581;DHT22;9420;50.876;7.012;2022-11-06T13:57:46;12.90;99.90
18581;DHT22;9420;50.876;7.012;2022-11-06T14:00:30;12.60;99.90
18581;DHT22;9420;50.876;7.012;2022-11-06T14:06:23;12.30;99.90
18581;DHT22;9420;50.876;7.012;2022-11-06T14:08:57;12.20;99.90
18581;DHT22;9420;50.876;7.012;2022-11-06T14:11:28;12.10;99.90
18581;DHT22;9420;50.876;7.012;2022-11-06T14:14:00;12.00;99.90
18581;DHT22;9420;50.876;7.012;2022-11-06T14:16:30;11.90;99.90
18581;DHT22;9420;50.876;7.012;2022-11-06T14:19:03;11.90;99.90
18581;DHT22;9420;50.876;7.012;2022-11-06T14:21:48;11.80;99.90
18581;DHT22;9420;50.876;7.012;2022-11-06T14:24:28;11.70;99.90
18581;DHT22;9420;50.876;7.012;2022-11-06T14:26:58;11.70;99.90
18581;DHT22;9420;50.876;7.012;2022-11-06T14:29:55;11.60;99.90
18581;DHT22;9420;50.876;7.012;2022-11-06T14:32:41;11.60;99.90
18581;DHT22;9420;50.876;7.012;2022-11-06T14:38:35;11.50;99.90
18581;DHT22;9420;50.876;7.012;2022-11-06T14:44:33;11.40;99.90
18581;DHT22;9420;50.876;7.012;2022-11-06T14:47:28;11.40;99.90
18581;DHT22;9420;50.876;7.012;2022-11-06T14:50:05;11.30;99.90
18581;DHT22;9420;50.876;7.012;2022-11-06T14:52:41;11.30;99.90
18581;DHT22;9420;50.876;7.012;2022-11-06T14:55:27;11.30;99.90
18581;DHT22;9420;50.876;7.012;2022-11-06T14:58:10;11.30;99.90
18581;DHT22;9420;50.876;7.012;2022-11-06T15:00:48;11.30;99.90
18581;DHT22;9420;50.876;7.012;2022-11-06T15:03:23;11.30;99.90
18581;DHT22;9420;50.876;7.012;2022-11-06T15:05:58;11.20;99.90
18581;DHT22;9420;50.876;7.012;2022-11-06T15:08:53;11.20;99.90
18581;DHT22;9420;50.876;7.012;2022-11-06T15:11:57;11.20;99.90
18581;DHT22;9420;50.876;7.012;2022-11-06T15:14:53;11.20;99.90
18581;DHT22;9420;50.876;7.012;2022-11-06T15:17:26;11.10;99.90
18581;DHT22;9420;50.876;7.012;2022-11-06T15:20:13;11.10;99.90
18581;DHT22;9420;50.876;7.012;2022-11-06T15:25:56;10.90;99.90
18581;DHT22;9420;50.876;7.012;2022-11-06T15:28:34;10.80;99.90
18581;DHT22;9420;50.876;7.012;2022-11-06T15:31:13;10.70;99.90
18581;DHT22;9420;50.876;7.012;2022-11-06T15:33:50;10.60;99.90
18581;DHT22;9420;50.876;7.012;2022-11-06T15:36:25;10.50;99.90
18581;DHT22;9420;50.876;7.012;2022-11-06T15:38:53;10.40;99.90
18581;DHT22;9420;50.876;7.012;2022-11-06T15:41:22;10.30;99.90
18581;DHT22;9420;50.876;7.012;2022-11-06T15:43:53;10.20;99.90
18581;DHT22;9420;50.876;7.012;2022-11-06T15:46:25;10.20;99.90
18581;DHT22;9420;50.876;7.012;2022-11-06T15:49:16;10.00;99.90
18581;DHT22;9420;50.876;7.012;2022-11-06T15:51:51;10.00;99.90
18581;DHT22;9420;50.876;7.012;2022-11-06T15:54:31;10.00;99.90
18581;DHT22;9420;50.876;7.012;2022-11-06T15:57:04;9.80;99.90
18581;DHT22;9420;50.876;7.012;2022-11-06T15:59:37;9.80;99.90
18581;DHT22;9420;50.876;7.012;2022-11-06T16:02:12;9.80;99.90
18581;DHT22;9420;50.876;7.012;2022-11-06T16:04:44;9.80;99.90
18581;DHT22;9420;50.876;7.012;2022-11-06T16:07:13;9.80;99.90
18581;DHT22;9420;50.876;7.012;2022-11-06T16:09:41;9.80;99.90
18581;DHT22;9420;50.876;7.012;2022-11-06T16:12:10;9.80;99.90
18581;DHT22;9420;50.876;7.012;2022-11-06T16:14:41;9.90;99.90
18581;DHT22;9420;50.876;7.012;2022-11-06T16:17:16;9.80;99.90
18581;DHT22;9420;50.876;7.012;2022-11-06T16:19:49;9.80;99.90
18581;DHT22;9420;50.876;7.012;2022-11-06T16:22:26;9.80;99.90
18581;DHT22;9420;50.876;7.012;2022-11-06T16:24:58;9.80;99.90
18581;DHT22;9420;50.876;7.012;2022-11-06T16:27:32;9.80;99.90
18581;DHT22;9420;50.876;7.012;2022-11-06T16:30:03;9.70;99.90
18581;DHT22;9420;50.876;7.012;2022-11-06T16:32:39;9.80;99.90
18581;DHT22;9420;50.876;7.012;2022-11-06T16:35:28;9.80;99.90
18581;DHT22;9420;50.876;7.012;2022-11-06T16:37:57;9.80;99.90
18581;DHT22;9420;50.876;7.012;2022-11-06T16:40:59;9.80;99.90
18581;DHT22;9420;50.876;7.012;2022-11-06T16:43:26;9.80;99.90
18581;DHT22;9420;50.876;7.012;2022-11-06T16:45:55;9.80;99.90
18581;DHT22;9420;50.876;7.012;2022-11-06T16:48:29;9.80;99.90
18581;DHT22;9420;50.876;7.012;2022-11-06T16:51:03;9.80;99.90